createdAt,value
2022-12-22T00:01:32.191Z,32.97
2022-12-22T00:06:07.109Z,34.55
2022-12-22T00:10:41.618Z,32.80
2022-12-22T00:15:17.052Z,33.25
2022-12-22T00:19:51.634Z,33.70
2022-12-22T00:24:27.061Z,32.83
2022-12-22T00:29:02.487Z,33.88
2022-12-22T00:33:38.924Z,32.42
2022-12-22T00:38:13.617Z,31.87
2022-12-22T00:42:48.445Z,33.83
2022-12-22T00:47:23.328Z,32.78
2022-12-22T00:51:58.160Z,32.05
2022-12-22T00:56:33.141Z,30.10
2022-12-22T01:01:07.835Z,29.42
2022-12-22T01:05:42.666Z,30.55
2022-12-22T01:10:17.354Z,29.40
2022-12-22T01:14:51.859Z,30.70
2022-12-22T01:19:26.607Z,30.35
2022-12-22T01:24:01.837Z,30.45
2022-12-22T01:28:36.562Z,32.33
2022-12-22T01:33:11.486Z,31.37
2022-12-22T01:37:46.658Z,30.17
2022-12-22T01:42:21.531Z,30.17
2022-12-22T01:47:05.488Z,31.50
2022-12-22T01:51:47.216Z,31.05
2022-12-22T01:56:22.404Z,30.37
2022-12-22T02:00:58.155Z,29.20
2022-12-22T02:05:34.608Z,28.10
2022-12-22T02:10:31.962Z,29.90
2022-12-22T02:15:42.581Z,29.35
2022-12-22T02:20:58.716Z,30.12
2022-12-22T02:25:37.841Z,31.05
2022-12-22T02:30:19.235Z,29.12
2022-12-22T02:34:53.807Z,30.85
2022-12-22T02:39:46.477Z,31.15
2022-12-22T02:44:40.399Z,31.48
2022-12-22T02:53:53.498Z,30.05
2022-12-22T02:58:29.951Z,29.58
2022-12-22T03:03:04.787Z,31.62
2022-12-22T03:07:39.618Z,31.00
2022-12-22T03:12:14.517Z,31.48
2022-12-22T03:16:49.918Z,31.08
2022-12-22T03:21:24.690Z,30.48
2022-12-22T03:25:56.274Z,31.27
2022-12-22T03:30:12.660Z,32.13
2022-12-22T03:34:28.822Z,29.65
2022-12-22T03:38:44.907Z,29.10
2022-12-22T03:43:19.646Z,29.73
2022-12-22T03:47:35.874Z,31.20
2022-12-22T03:51:53.322Z,30.98
2022-12-22T03:56:09.557Z,30.33
2022-12-22T04:00:25.739Z,29.12
2022-12-22T04:04:42.018Z,30.70
2022-12-22T04:08:58.169Z,29.58
2022-12-22T04:13:14.327Z,28.75
2022-12-22T04:17:30.439Z,30.70
2022-12-22T04:21:46.572Z,28.38
2022-12-22T04:26:02.810Z,29.73
2022-12-22T04:30:19.215Z,30.92
2022-12-22T04:34:35.386Z,28.85
2022-12-22T04:38:51.644Z,26.87
2022-12-22T04:43:07.908Z,29.70
2022-12-22T04:47:24.108Z,29.75
2022-12-22T04:51:40.212Z,29.48
2022-12-22T04:56:01.521Z,29.52
2022-12-22T05:00:18.257Z,30.23
2022-12-22T05:04:34.475Z,30.67
2022-12-22T05:08:50.684Z,32.03
2022-12-22T05:13:06.855Z,29.90
2022-12-22T05:17:23.000Z,30.85
2022-12-22T05:21:39.136Z,29.45
2022-12-22T05:25:56.119Z,31.25
2022-12-22T05:30:13.587Z,30.52
2022-12-22T05:34:29.766Z,28.52
2022-12-22T05:38:46.407Z,30.52
2022-12-22T05:43:02.757Z,29.95
2022-12-22T05:47:18.943Z,29.75
2022-12-22T05:51:35.191Z,29.55
2022-12-22T05:55:52.875Z,31.37
2022-12-22T06:00:15.928Z,31.98
2022-12-22T06:04:32.155Z,29.90
2022-12-22T06:08:48.366Z,30.88
2022-12-22T06:13:04.527Z,30.60
2022-12-22T06:17:20.705Z,28.67
2022-12-22T06:21:36.937Z,25.92
2022-12-22T06:25:57.938Z,24.90
2022-12-22T06:30:14.988Z,23.67
2022-12-22T06:34:31.296Z,25.58
2022-12-22T06:38:47.502Z,26.20
2022-12-22T06:43:10.498Z,27.85
2022-12-22T06:47:27.056Z,29.02
2022-12-22T06:51:43.268Z,33.15
2022-12-22T06:55:59.368Z,31.52
2022-12-22T07:00:16.060Z,30.60
2022-12-22T07:04:32.418Z,29.73
2022-12-22T07:08:49.040Z,32.50
2022-12-22T07:13:19.576Z,31.30
2022-12-22T07:17:35.908Z,30.75
2022-12-22T07:21:52.117Z,32.05
2022-12-22T07:26:09.596Z,32.25
2022-12-22T07:30:25.781Z,34.38
2022-12-22T07:34:42.021Z,33.80
2022-12-22T07:38:58.220Z,30.25
2022-12-22T07:43:14.386Z,28.10
2022-12-22T07:47:35.241Z,28.23
2022-12-22T07:51:52.322Z,28.27
2022-12-22T07:56:08.733Z,27.17
2022-12-22T08:00:24.991Z,24.65
2022-12-22T08:04:41.210Z,24.77
2022-12-22T08:08:57.403Z,23.83
2022-12-22T08:13:13.562Z,25.33
2022-12-22T08:17:30.181Z,23.90
2022-12-22T08:21:52.531Z,25.67
2022-12-22T08:26:14.127Z,24.67
2022-12-22T08:30:30.579Z,25.30
2022-12-22T08:34:49.459Z,25.88
2022-12-22T08:39:06.157Z,23.17
2022-12-22T08:43:22.263Z,24.67
2022-12-22T08:47:38.506Z,24.67
2022-12-22T08:51:54.911Z,23.17
2022-12-22T08:56:11.102Z,23.02
2022-12-22T09:00:27.778Z,22.50
2022-12-22T09:04:43.957Z,23.98
2022-12-22T09:09:02.130Z,22.17
2022-12-22T09:13:18.845Z,22.60
2022-12-22T09:17:36.409Z,22.75
2022-12-22T09:21:52.665Z,23.35
2022-12-22T09:26:10.361Z,24.58
2022-12-22T09:30:26.596Z,23.17
2022-12-22T09:34:42.772Z,24.27
2022-12-22T09:39:01.012Z,22.60
2022-12-22T09:43:19.349Z,22.95
2022-12-22T09:47:38.993Z,25.17
2022-12-22T09:52:00.406Z,24.12
2022-12-22T09:56:17.845Z,27.33
2022-12-22T10:00:36.813Z,28.70
2022-12-22T10:05:21.021Z,29.75
2022-12-22T10:09:52.659Z,31.92
2022-12-22T10:14:11.315Z,30.50
2022-12-22T10:18:29.587Z,31.00
2022-12-22T10:22:55.647Z,31.60
2022-12-22T10:27:11.962Z,31.52
2022-12-22T10:31:34.136Z,31.62
2022-12-22T10:36:00.332Z,29.70
2022-12-22T10:40:17.594Z,29.58
2022-12-22T10:44:35.280Z,27.52
2022-12-22T10:48:51.404Z,29.05
2022-12-22T10:53:07.531Z,28.50
2022-12-22T10:57:28.937Z,30.08
2022-12-22T11:01:47.204Z,27.70
2022-12-22T11:06:13.437Z,26.35
2022-12-22T11:10:48.903Z,25.45
2022-12-22T11:15:49.331Z,23.52
2022-12-22T11:20:31.409Z,23.77
2022-12-22T11:24:53.502Z,23.40
2022-12-22T11:29:29.425Z,22.62
2022-12-22T11:34:21.273Z,21.98
2022-12-22T11:39:01.851Z,22.40
2022-12-22T11:43:30.338Z,22.65
2022-12-22T11:47:57.712Z,21.67
2022-12-22T11:52:25.009Z,23.50
2022-12-22T11:56:47.732Z,25.02
2022-12-22T12:01:28.606Z,23.52
2022-12-22T12:06:03.445Z,24.60
2022-12-22T12:10:29.428Z,25.98
2022-12-22T12:15:02.412Z,24.95
2022-12-22T12:19:28.719Z,26.08
2022-12-22T12:24:00.205Z,25.15
2022-12-22T12:28:42.969Z,25.20
2022-12-22T12:33:09.470Z,26.35
2022-12-22T12:37:37.959Z,25.58
2022-12-22T12:42:06.365Z,27.27
2022-12-22T12:46:41.253Z,26.58
2022-12-22T12:51:00.489Z,31.65
2022-12-22T12:55:32.554Z,29.83
2022-12-22T12:59:50.344Z,30.65
2022-12-22T13:04:28.479Z,28.52
2022-12-22T13:09:39.659Z,31.77
2022-12-22T13:13:40.697Z,31.40
2022-12-22T13:17:57.288Z,33.00
2022-12-22T13:22:13.632Z,35.03
2022-12-22T13:26:38.245Z,33.60
2022-12-22T13:31:02.875Z,34.83
2022-12-22T13:35:44.781Z,35.80
2022-12-22T13:40:18.419Z,35.20
2022-12-22T13:44:35.584Z,35.17
2022-12-22T13:48:54.372Z,36.17
2022-12-22T13:53:13.029Z,37.42
2022-12-22T13:57:39.577Z,35.97
2022-12-22T14:02:01.542Z,35.65
2022-12-22T14:06:38.719Z,34.38
2022-12-22T14:10:55.666Z,35.75
2022-12-22T14:15:20.176Z,35.20
2022-12-22T14:19:38.278Z,36.42
2022-12-22T14:23:54.410Z,34.63
2022-12-22T14:28:22.624Z,35.10
2022-12-22T14:32:41.661Z,35.95
2022-12-22T14:36:58.883Z,37.13
2022-12-22T14:41:42.249Z,36.13
2022-12-22T14:46:09.109Z,36.10
2022-12-22T14:50:29.622Z,36.50
2022-12-22T14:54:48.608Z,34.90
2022-12-22T14:59:22.203Z,35.15
2022-12-22T15:08:07.959Z,35.90
2022-12-22T15:12:26.147Z,34.55
2022-12-22T15:16:42.965Z,34.22
2022-12-22T15:20:59.316Z,34.00
2022-12-22T15:25:22.755Z,33.92
2022-12-22T15:33:55.892Z,34.17
2022-12-22T15:38:18.694Z,32.95
2022-12-22T15:42:34.876Z,33.97
2022-12-22T15:46:56.730Z,35.50
2022-12-22T15:51:20.974Z,35.40
2022-12-22T15:55:42.624Z,34.00
2022-12-22T15:59:58.988Z,36.40
2022-12-22T16:04:15.296Z,34.95
2022-12-22T16:08:37.164Z,34.75
2022-12-22T16:13:00.215Z,35.50
2022-12-22T16:17:24.424Z,37.05
2022-12-22T16:21:41.363Z,37.85
2022-12-22T16:26:01.924Z,39.55
2022-12-22T16:30:21.672Z,36.25
2022-12-22T16:34:37.794Z,38.65
2022-12-22T16:38:53.973Z,38.08
2022-12-22T16:48:09.347Z,36.08
2022-12-22T16:52:39.193Z,39.20
2022-12-22T16:56:55.440Z,37.28
2022-12-22T17:01:27.753Z,38.90
2022-12-22T17:05:48.415Z,39.20
2022-12-22T17:10:04.966Z,38.78
2022-12-22T17:14:29.756Z,40.28
2022-12-22T17:18:46.108Z,38.28
2022-12-22T17:23:03.263Z,38.70
2022-12-22T17:27:25.909Z,38.80
2022-12-22T17:31:42.246Z,38.77
2022-12-22T17:35:59.077Z,41.53
2022-12-22T17:40:31.104Z,39.67
2022-12-22T17:44:47.967Z,40.58
2022-12-22T17:49:04.164Z,42.42
2022-12-22T17:53:21.411Z,42.88
2022-12-22T17:57:37.577Z,40.80
2022-12-22T18:01:53.973Z,41.83
2022-12-22T18:06:15.897Z,43.00
2022-12-22T18:10:38.043Z,44.35
2022-12-22T18:14:54.339Z,41.72
2022-12-22T18:19:10.639Z,42.95
2022-12-22T18:23:32.641Z,38.70
2022-12-22T18:27:49.736Z,40.45
2022-12-22T18:32:06.176Z,39.10
2022-12-22T18:36:31.259Z,41.00
2022-12-22T18:40:48.247Z,41.33
2022-12-22T18:45:04.699Z,41.80
2022-12-22T18:49:20.943Z,42.67
2022-12-22T18:53:37.151Z,40.97
2022-12-22T18:57:54.374Z,40.10
2022-12-22T19:02:26.423Z,39.65
2022-12-22T19:06:46.697Z,39.28
2022-12-22T19:11:07.022Z,40.15
2022-12-22T19:15:30.709Z,39.67
2022-12-22T19:19:46.965Z,39.80
2022-12-22T19:24:03.132Z,39.92
2022-12-22T19:28:45.457Z,40.10
2022-12-22T19:33:03.822Z,39.33
2022-12-22T19:37:20.471Z,41.05
2022-12-22T19:41:39.642Z,39.05
2022-12-22T19:45:56.072Z,39.80
2022-12-22T19:50:19.859Z,39.70
2022-12-22T19:54:36.573Z,38.95
2022-12-22T19:58:53.309Z,39.67
2022-12-22T20:03:12.655Z,39.30
2022-12-22T20:07:30.157Z,39.63
2022-12-22T20:11:46.510Z,38.40
2022-12-22T20:16:04.311Z,40.42
2022-12-22T20:20:23.945Z,39.70
2022-12-22T20:24:40.096Z,39.25
2022-12-22T20:28:56.335Z,38.78
2022-12-22T20:33:13.039Z,40.08
2022-12-22T20:37:29.897Z,39.65
2022-12-22T20:41:52.587Z,39.92
2022-12-22T20:46:21.411Z,37.65
2022-12-22T20:50:37.639Z,37.17
2022-12-22T20:54:53.918Z,37.03
2022-12-22T20:59:22.421Z,36.17
2022-12-22T21:03:38.604Z,37.80
2022-12-22T21:07:54.836Z,38.28
2022-12-22T21:12:11.056Z,36.65
2022-12-22T21:16:29.046Z,38.40
2022-12-22T21:20:45.991Z,38.25
2022-12-22T21:25:02.200Z,38.65
2022-12-22T21:29:23.970Z,37.13
2022-12-22T21:33:40.129Z,39.60
2022-12-22T21:37:58.074Z,37.70
2022-12-22T21:42:18.408Z,44.58
2022-12-22T21:46:34.690Z,45.30
2022-12-22T21:50:50.980Z,42.95
2022-12-22T21:55:07.611Z,46.05
2022-12-22T21:59:23.829Z,45.17
2022-12-22T22:03:39.991Z,43.28
2022-12-22T22:07:57.333Z,43.08
2022-12-22T22:12:32.137Z,42.30
2022-12-22T22:16:48.516Z,42.95
2022-12-22T22:21:07.111Z,41.58
2022-12-22T22:25:23.928Z,36.03
2022-12-22T22:29:40.644Z,41.05
2022-12-22T22:33:56.915Z,39.65
2022-12-22T22:38:15.006Z,41.00
2022-12-22T22:42:31.194Z,38.35
2022-12-22T22:46:47.402Z,40.85
2022-12-22T22:51:03.699Z,41.70
2022-12-22T22:55:19.924Z,42.60
2022-12-22T22:59:36.227Z,41.17
2022-12-22T23:03:52.569Z,39.15
2022-12-22T23:08:08.889Z,39.88
2022-12-22T23:12:25.121Z,39.63
2022-12-22T23:16:41.496Z,38.85
2022-12-22T23:21:02.300Z,39.35
2022-12-22T23:25:18.508Z,43.30
2022-12-22T23:29:35.880Z,41.65
2022-12-22T23:33:52.126Z,41.00
2022-12-22T23:38:09.072Z,41.60
2022-12-22T23:42:25.250Z,41.30
2022-12-22T23:46:41.827Z,40.15
2022-12-22T23:50:58.073Z,36.90
2022-12-22T23:55:15.382Z,38.58
2022-12-22T23:59:31.758Z,34.80
